Robstown, TX

10:05 AM CST on January 16, 2017 (GMT -0600)
Robstown

Weather History for KRBO - November, 2011

Change the Weather History Date:

Thursday, November 3, 2011

  Actual Average (KCRP) Record (KCRP)
Temperature  
Mean Temperature 62 °F -  
Max Temperature 72 °F 77 °F 91 °F (1992)
Min Temperature 53 °F 58 °F 31 °F (1951)
Degree Days  
Heating Degree Days 2    
Growing Degree Days 12 (Base 50)    
Moisture  
Dew Point 38 °F    
Average Humidity 48    
Maximum Humidity 98    
Minimum Humidity 19    
Precipitation  
Precipitation 0.02 in - - ()
Sea Level Pressure  
Sea Level Pressure 30.26 in    
Wind  
Wind Speed 13 mph (North)    
Max Wind Speed 32 mph    
Max Gust Speed 41 mph    
Visibility 10 miles    
Events Rain    
Averages and records for this station are not official NWS values.
T = Trace of Precipitation, MM = Missing Value Source: NWS Daily Summary

Daily Weather History Graph

Daily Weather History Graph

Search for Another Location

Airport or City:

Trip Planner

Search our weather history database for the weather conditions in past years. The results will help you decide how hot, cold, wet, or windy it might be!

Date:

Astronomy

Nov. 03, 2011 Rise Set
Actual Time 7:42 AM CDT 6:45 PM CDT
Civil Twilight 7:18 AM CDT 7:09 PM CDT
Nautical Twilight 6:50 AM CDT 7:37 PM CDT
Astronomical Twilight 6:23 AM CDT 8:04 PM CDT
Moon 2:38 PM CDT (11/3) 1:30 AM CDT (11/3)
Length of Visible Light 11h 50m
Length of Day
11h 02m
First Quarter, 60% of the Moon is Illuminated
Nov 3
First Quarter
Nov 10
Full
Nov 18
Last Quarter
Nov 25
New
Dec 2
First Quarter

Hourly Weather History & Observations

Time (CDT) Temp. Dew Point Humidity Pressure Visibility Wind Dir Wind Speed Gust Speed Precip Events Conditions
12:15 AM 72.3 °F 68.4 °F 87% 30.08 in 10.0 mi Calm Calm - N/A   Clear
12:35 AM 72.3 °F 70.3 °F 93% 30.08 in 10.0 mi Calm Calm - N/A   Clear
12:55 AM 71.8 °F 70.9 °F 97% 30.08 in 10.0 mi SSE 3.5 mph - N/A   Clear
1:15 AM 72.3 °F 71.8 °F 98% 30.08 in 10.0 mi Calm Calm - N/A   Scattered Clouds
1:55 AM 70.9 °F 70.2 °F 98% 30.09 in 10.0 mi WNW 3.5 mph - N/A   Clear
2:15 AM 70.0 °F 64.0 °F 81% 30.14 in 7.0 mi North 32.2 mph 41.4 mph N/A   Mostly Cloudy
2:35 AM 65.3 °F 51.8 °F 62% 30.16 in 10.0 mi North 25.3 mph 39.1 mph N/A   Overcast
2:55 AM 60.6 °F 52.9 °F 76% 30.17 in 7.0 mi North 23.0 mph 34.5 mph 0.01 in Rain Light Rain
3:15 AM 59.0 °F 51.6 °F 76% 30.18 in 10.0 mi North 20.7 mph 32.2 mph 0.01 in   Light Drizzle
3:35 AM 58.8 °F 48.7 °F 69% 30.18 in 10.0 mi North 20.7 mph 28.8 mph 0.01 in Rain Light Rain
4:15 AM 57.4 °F 47.3 °F 69% 30.20 in 10.0 mi North 24.2 mph 31.1 mph N/A Rain Light Rain
4:35 AM 56.5 °F 46.9 °F 70% 30.20 in 10.0 mi North 19.6 mph 32.2 mph N/A   Overcast
4:55 AM 55.2 °F 48.0 °F 77% 30.21 in 10.0 mi North 26.5 mph 32.2 mph N/A Rain Light Rain
5:15 AM 54.0 °F 46.2 °F 75% 30.23 in 10.0 mi North 25.3 mph 34.5 mph N/A   Overcast
5:35 AM 53.8 °F 44.8 °F 72% 30.23 in 10.0 mi North 19.6 mph 29.9 mph N/A   Overcast
5:55 AM 53.6 °F 45.3 °F 74% 30.26 in 10.0 mi North 16.1 mph 23.0 mph N/A   Overcast
6:15 AM 53.6 °F 44.2 °F 71% 30.26 in 10.0 mi North 17.3 mph - N/A Rain Rain
6:35 AM 53.1 °F 43.9 °F 71% 30.27 in 10.0 mi North 15.0 mph 25.3 mph N/A   Overcast
6:55 AM 54.1 °F 42.4 °F 65% 30.28 in 10.0 mi North 16.1 mph 24.2 mph N/A   Overcast
7:15 AM 54.5 °F 41.5 °F 62% 30.29 in 10.0 mi North 17.3 mph 21.9 mph N/A   Overcast
7:35 AM 54.5 °F 39.2 °F 56% 30.29 in 10.0 mi North 23.0 mph 29.9 mph N/A   Overcast
7:55 AM 54.3 °F 37.2 °F 52% 30.31 in 10.0 mi North 25.3 mph 34.5 mph N/A   Overcast
8:15 AM 54.1 °F 37.0 °F 52% 30.32 in 10.0 mi North 18.4 mph 25.3 mph N/A   Overcast
8:35 AM 53.8 °F 38.7 °F 57% 30.33 in 10.0 mi North 13.8 mph 24.2 mph N/A   Overcast
8:55 AM 54.0 °F 38.7 °F 56% 30.35 in 10.0 mi North 17.3 mph 23.0 mph N/A   Overcast
9:35 AM 54.1 °F 36.9 °F 52% 30.36 in 10.0 mi North 19.6 mph 28.8 mph N/A   Overcast
9:55 AM 54.5 °F 37.6 °F 53% 30.37 in 10.0 mi North 17.3 mph 25.3 mph N/A   Overcast
10:15 AM 55.0 °F 37.0 °F 51% 30.38 in 10.0 mi North 17.3 mph 25.3 mph N/A   Overcast
10:35 AM 55.4 °F 36.3 °F 49% 30.38 in 10.0 mi North 23.0 mph - N/A   Overcast
10:55 AM 55.8 °F 35.2 °F 46% 30.38 in 5.0 mi North 23.0 mph 27.6 mph N/A   Haze
11:15 AM 56.8 °F 35.4 °F 45% 30.38 in 10.0 mi North 23.0 mph 28.8 mph N/A   Overcast
11:35 AM 57.4 °F 34.7 °F 43% 30.38 in 10.0 mi North 20.7 mph 27.6 mph N/A   Overcast
11:55 AM 58.3 °F 35.2 °F 42% 30.38 in 10.0 mi NNW 21.9 mph 26.5 mph N/A   Overcast
12:35 PM 60.1 °F 33.1 °F 36% 30.37 in 10.0 mi North 24.2 mph 27.6 mph N/A   Clear
1:15 PM 61.3 °F 31.8 °F 33% 30.35 in 10.0 mi NNW 20.7 mph 24.2 mph N/A   Mostly Cloudy
1:35 PM 61.9 °F 31.3 °F 32% 30.34 in 10.0 mi NNW 19.6 mph 26.5 mph N/A   Overcast
1:55 PM 63.1 °F 30.6 °F 29% 30.32 in 10.0 mi NNW 17.3 mph 26.5 mph N/A   Overcast
2:15 PM 63.9 °F 30.9 °F 29% 30.31 in 10.0 mi North 15.0 mph 21.9 mph N/A   Scattered Clouds
2:35 PM 66.0 °F 29.1 °F 25% 30.30 in 10.0 mi NNW 17.3 mph 24.2 mph N/A   Clear
2:55 PM 66.9 °F 28.0 °F 23% 30.29 in 10.0 mi NNW 17.3 mph 23.0 mph N/A   Clear
3:15 PM 67.6 °F 26.8 °F 22% 30.27 in 10.0 mi North 18.4 mph 25.3 mph N/A   Scattered Clouds
3:35 PM 68.2 °F 26.8 °F 21% 30.27 in 10.0 mi NNW 18.4 mph 26.5 mph N/A   Scattered Clouds
3:55 PM 68.4 °F 25.5 °F 20% 30.26 in 10.0 mi NNW 17.3 mph - N/A   Clear
4:15 PM 68.7 °F 25.2 °F 19% 30.26 in 10.0 mi North 13.8 mph - N/A   Clear
4:35 PM 68.9 °F 25.2 °F 19% 30.25 in 10.0 mi NNW 19.6 mph 24.2 mph N/A   Clear
4:55 PM 68.9 °F 25.0 °F 19% 30.25 in 10.0 mi North 15.0 mph 19.6 mph N/A   Clear
5:15 PM 68.9 °F 24.4 °F 19% 30.25 in 10.0 mi North 13.8 mph 20.7 mph N/A   Clear
5:35 PM 68.4 °F 24.1 °F 19% 30.25 in 10.0 mi NNW 17.3 mph 20.7 mph N/A   Clear
5:55 PM 68.0 °F 24.1 °F 19% 30.25 in 10.0 mi NNW 12.7 mph 18.4 mph N/A   Clear
6:15 PM 67.3 °F 24.8 °F 20% 30.24 in 10.0 mi NNW 15.0 mph - N/A   Clear
6:35 PM 66.0 °F 24.4 °F 21% 30.25 in 10.0 mi NNW 8.1 mph - N/A   Clear
6:55 PM 64.4 °F 25.3 °F 23% 30.25 in 10.0 mi NNW 9.2 mph - N/A   Clear
7:15 PM 62.6 °F 26.1 °F 25% 30.25 in 10.0 mi North 4.6 mph - N/A   Clear
7:35 PM 60.1 °F 26.8 °F 28% 30.25 in 10.0 mi North 5.8 mph - N/A   Clear
7:55 PM 58.5 °F 26.6 °F 30% 30.26 in 10.0 mi North 5.8 mph - N/A   Clear
8:15 PM 56.8 °F 26.6 °F 31% 30.27 in 10.0 mi North 4.6 mph - N/A   Clear
8:35 PM 57.2 °F 26.8 °F 31% 30.27 in 10.0 mi North 3.5 mph - N/A   Clear
8:55 PM 56.8 °F 26.8 °F 32% 30.27 in 10.0 mi Calm Calm - N/A   Clear
9:15 PM 55.6 °F 26.8 °F 33% 30.27 in 10.0 mi North 3.5 mph - N/A   Clear
9:35 PM 54.3 °F 27.7 °F 36% 30.28 in 10.0 mi North 3.5 mph - N/A   Clear
9:55 PM 53.6 °F 28.4 °F 38% 30.28 in 10.0 mi Calm Calm - N/A   Clear
10:15 PM 53.4 °F 27.7 °F 37% 30.29 in 10.0 mi Calm Calm - N/A   Clear
10:35 PM 51.8 °F 28.8 °F 41% 30.28 in 10.0 mi Calm Calm - N/A   Clear
10:55 PM 51.1 °F 30.6 °F 45% 30.28 in 10.0 mi North 4.6 mph - N/A   Clear
11:15 PM 50.0 °F 32.5 °F 51% 30.28 in 10.0 mi North 4.6 mph - N/A   Clear
11:55 PM 48.7 °F 29.8 °F 48% 30.28 in 10.0 mi North 4.6 mph - N/A   Clear